createdAt,value
2023-03-24T00:00:28.596Z,98241.06
2023-03-24T00:02:56.970Z,98237.13
2023-03-24T00:05:24.577Z,98249.38
2023-03-24T00:07:54.899Z,98246.69
2023-03-24T00:10:23.223Z,98259.03
2023-03-24T00:12:52.082Z,98253.41
2023-03-24T00:15:21.756Z,98254.63
2023-03-24T00:17:53.165Z,98249.97
2023-03-24T00:20:22.567Z,98252.28
2023-03-24T00:22:57.262Z,98251.19
2023-03-24T00:25:34.233Z,98256.31
2023-03-24T00:28:01.757Z,98258.72
2023-03-24T00:30:33.190Z,98249.94
2023-03-24T00:33:02.219Z,98251.28
2023-03-24T00:35:40.209Z,98249.44
2023-03-24T00:38:09.296Z,98249.69
2023-03-24T00:40:40.338Z,98255.91
2023-03-24T00:43:17.189Z,98252.38
2023-03-24T00:45:51.369Z,98258.72
2023-03-24T00:48:25.259Z,98245.72
2023-03-24T00:50:54.803Z,98253.63
2023-03-24T00:53:29.410Z,98253.13
2023-03-24T00:55:57.661Z,98249.31
2023-03-24T00:58:25.700Z,98251.50
2023-03-24T01:00:56.899Z,98235.69
2023-03-24T01:03:27.867Z,98239.09
2023-03-24T01:06:03.086Z,98241.28
2023-03-24T01:08:30.593Z,98242.53
2023-03-24T01:11:01.581Z,98237.53
2023-03-24T01:13:30.131Z,98232.00
2023-03-24T01:15:57.940Z,98235.41
2023-03-24T01:18:25.421Z,98234.69
2023-03-24T01:20:56.441Z,98232.25
2023-03-24T01:23:26.243Z,98231.38
2023-03-24T01:25:54.632Z,98226.63
2023-03-24T01:28:25.360Z,98232.13
2023-03-24T01:30:54.174Z,98222.47
2023-03-24T01:33:21.903Z,98228.06
2023-03-24T01:35:50.809Z,98226.28
2023-03-24T01:38:18.331Z,98216.94
2023-03-24T01:40:47.669Z,98222.72
2023-03-24T01:43:27.366Z,98226.56
2023-03-24T01:46:12.863Z,98223.63
2023-03-24T01:48:59.316Z,98214.13
2023-03-24T01:51:34.962Z,98221.34
2023-03-24T01:54:10.170Z,98218.28
2023-03-24T01:56:43.209Z,98223.50
2023-03-24T01:59:21.276Z,98223.59
2023-03-24T02:02:03.751Z,98230.66
2023-03-24T02:04:58.941Z,98224.13
2023-03-24T02:07:58.119Z,98228.81
2023-03-24T02:10:26.323Z,98221.09
2023-03-24T02:12:53.665Z,98224.88
2023-03-24T02:15:21.394Z,98227.72
2023-03-24T02:18:04.115Z,98220.41
2023-03-24T02:20:57.547Z,98221.34
2023-03-24T02:23:41.166Z,98217.56
2023-03-24T02:26:35.275Z,98215.72
2023-03-24T02:29:36.265Z,98211.94
2023-03-24T02:32:06.242Z,98214.72
2023-03-24T02:35:06.843Z,98215.63
2023-03-24T02:37:39.766Z,98222.09
2023-03-24T02:40:17.421Z,98222.34
2023-03-24T02:42:56.859Z,98208.66
2023-03-24T02:46:02.683Z,98222.16
2023-03-24T02:48:42.006Z,98227.31
2023-03-24T02:51:24.128Z,98229.34
2023-03-24T02:54:00.281Z,98228.06
2023-03-24T02:56:40.906Z,98232.47
2023-03-24T02:59:26.640Z,98228.50
2023-03-24T03:02:05.503Z,98231.06
2023-03-24T03:04:56.953Z,98239.75
2023-03-24T03:07:27.758Z,98241.56
2023-03-24T03:10:08.224Z,98238.88
2023-03-24T03:12:38.492Z,98242.72
2023-03-24T03:15:12.605Z,98240.41
2023-03-24T03:17:48.553Z,98243.59
2023-03-24T03:20:24.714Z,98237.47
2023-03-24T03:23:00.187Z,98243.81
2023-03-24T03:25:33.459Z,98244.88
2023-03-24T03:28:05.088Z,98238.75
2023-03-24T03:30:40.883Z,98247.63
2023-03-24T03:33:25.921Z,98242.19
2023-03-24T03:35:59.143Z,98243.91
2023-03-24T03:38:36.576Z,98247.25
2023-03-24T03:41:05.979Z,98243.16
2023-03-24T03:43:36.797Z,98253.25
2023-03-24T03:46:06.769Z,98258.94
2023-03-24T03:48:38.271Z,98259.53
2023-03-24T03:51:13.859Z,98263.94
2023-03-24T03:53:55.906Z,98260.84
2023-03-24T03:56:27.482Z,98254.50
2023-03-24T03:59:34.961Z,98260.38
2023-03-24T04:02:44.041Z,98255.59
2023-03-24T04:05:27.832Z,98246.50
2023-03-24T04:08:27.817Z,98257.06
2023-03-24T04:11:36.516Z,98258.69
2023-03-24T04:14:37.614Z,98262.00
2023-03-24T04:17:57.201Z,98265.44
2023-03-24T04:21:33.950Z,98257.94
2023-03-24T04:24:27.033Z,98258.16
2023-03-24T04:27:06.880Z,98262.03
2023-03-24T04:29:53.442Z,98249.47
2023-03-24T04:32:47.163Z,98252.06
2023-03-24T04:35:32.133Z,98254.28
2023-03-24T04:38:23.640Z,98261.47
2023-03-24T04:41:00.225Z,98262.41
2023-03-24T04:43:36.337Z,98269.09
2023-03-24T04:46:07.473Z,98273.88
2023-03-24T04:49:10.232Z,98279.06
2023-03-24T04:51:39.192Z,98278.47
2023-03-24T04:54:20.831Z,98281.53
2023-03-24T04:56:57.877Z,98280.69
2023-03-24T04:59:31.585Z,98292.94
2023-03-24T05:01:58.827Z,98281.34
2023-03-24T05:04:37.468Z,98288.34
2023-03-24T05:07:15.818Z,98297.13
2023-03-24T05:09:44.211Z,98297.69
2023-03-24T05:12:13.227Z,98308.38
2023-03-24T05:15:00.379Z,98297.50
2023-03-24T05:17:28.194Z,98309.44
2023-03-24T05:19:55.500Z,98311.44
2023-03-24T05:22:22.758Z,98310.84
2023-03-24T05:24:50.056Z,98316.84
2023-03-24T05:27:17.167Z,98316.00
2023-03-24T05:29:44.394Z,98321.25
2023-03-24T05:32:15.812Z,98326.91
2023-03-24T05:34:43.431Z,98318.06
2023-03-24T05:37:14.702Z,98318.47
2023-03-24T05:39:42.175Z,98317.19
2023-03-24T05:42:23.062Z,98317.31
2023-03-24T05:44:50.710Z,98319.94
2023-03-24T05:47:25.360Z,98320.41
2023-03-24T05:49:52.602Z,98320.38
2023-03-24T05:52:20.908Z,98311.94
2023-03-24T05:54:52.489Z,98321.78
2023-03-24T05:57:23.510Z,98318.28
2023-03-24T06:00:15.370Z,98333.38
2023-03-24T06:02:49.625Z,98330.50
2023-03-24T06:05:39.939Z,98321.00
2023-03-24T06:08:07.218Z,98320.59
2023-03-24T06:10:37.184Z,98320.66
2023-03-24T06:13:05.449Z,98318.88
2023-03-24T06:15:34.911Z,98324.94
2023-03-24T06:18:17.205Z,98325.09
2023-03-24T06:20:45.325Z,98322.53
2023-03-24T06:23:19.594Z,98324.31
2023-03-24T06:26:01.753Z,98324.34
2023-03-24T06:28:34.789Z,98331.63
2023-03-24T06:31:15.433Z,98337.97
2023-03-24T06:33:45.585Z,98339.34
2023-03-24T06:36:13.581Z,98329.78
2023-03-24T06:38:42.797Z,98327.72
2023-03-24T06:41:11.513Z,98335.41
2023-03-24T06:43:38.818Z,98335.41
2023-03-24T06:46:06.695Z,98339.84
2023-03-24T06:48:36.200Z,98344.88
2023-03-24T06:51:07.900Z,98342.47
2023-03-24T06:53:35.953Z,98332.19
2023-03-24T06:56:03.757Z,98341.59
2023-03-24T06:58:38.304Z,98339.84
2023-03-24T07:01:07.487Z,98343.25
2023-03-24T07:03:58.007Z,98335.50
2023-03-24T07:06:25.195Z,98334.72
2023-03-24T07:08:55.810Z,98336.19
2023-03-24T07:11:26.039Z,98334.09
2023-03-24T07:13:56.849Z,98337.97
2023-03-24T07:16:24.170Z,98337.28
2023-03-24T07:19:01.543Z,98331.22
2023-03-24T07:21:30.447Z,98324.00
2023-03-24T07:23:57.665Z,98325.63
2023-03-24T07:26:34.972Z,98330.81
2023-03-24T07:29:12.371Z,98321.16
2023-03-24T07:31:54.808Z,98325.44
2023-03-24T07:34:22.265Z,98326.28
2023-03-24T07:36:49.355Z,98329.41
2023-03-24T07:39:17.604Z,98334.28
2023-03-24T07:41:45.168Z,98322.72
2023-03-24T07:44:23.137Z,98326.44
2023-03-24T07:46:51.521Z,98323.31
2023-03-24T07:49:20.087Z,98326.28
2023-03-24T07:52:02.070Z,98311.78
2023-03-24T07:54:34.844Z,98314.03
2023-03-24T07:57:02.623Z,98310.63
2023-03-24T07:59:30.477Z,98314.59
2023-03-24T08:02:17.165Z,98310.47
2023-03-24T08:04:54.075Z,98310.06
2023-03-24T08:07:45.166Z,98294.09
2023-03-24T08:10:14.177Z,98293.84
2023-03-24T08:12:41.534Z,98296.59
2023-03-24T08:15:10.387Z,98289.75
2023-03-24T08:17:37.879Z,98289.53
2023-03-24T08:20:10.157Z,98287.41
2023-03-24T08:22:39.761Z,98281.81
2023-03-24T08:25:08.663Z,98288.19
2023-03-24T08:27:39.341Z,98288.75
2023-03-24T08:30:08.955Z,98286.78
2023-03-24T08:32:36.383Z,98275.06
2023-03-24T08:35:05.368Z,98279.44
2023-03-24T08:37:32.628Z,98271.22
2023-03-24T08:40:04.441Z,98275.84
2023-03-24T08:42:31.759Z,98271.78
2023-03-24T08:44:58.861Z,98273.00
2023-03-24T08:47:26.481Z,98264.25
2023-03-24T08:49:58.538Z,98259.88
2023-03-24T08:52:26.917Z,98251.47
2023-03-24T08:54:54.141Z,98265.03
2023-03-24T08:57:22.174Z,98245.25
2023-03-24T08:59:51.326Z,98247.53
2023-03-24T09:02:18.686Z,98255.66
2023-03-24T09:04:46.213Z,98249.63
2023-03-24T09:07:13.347Z,98247.16
2023-03-24T09:09:40.522Z,98246.19
2023-03-24T09:12:08.162Z,98240.66
2023-03-24T09:14:35.362Z,98246.31
2023-03-24T09:17:02.462Z,98251.81
2023-03-24T09:19:29.585Z,98245.22
2023-03-24T09:21:56.751Z,98242.69
2023-03-24T09:24:23.859Z,98227.78
2023-03-24T09:26:51.142Z,98224.03
2023-03-24T09:29:18.969Z,98223.22
2023-03-24T09:31:46.852Z,98219.84
2023-03-24T09:34:14.095Z,98217.81
2023-03-24T09:36:42.425Z,98222.38
2023-03-24T09:39:09.544Z,98221.22
2023-03-24T09:41:37.220Z,98218.13
2023-03-24T09:44:28.403Z,98219.81
2023-03-24T09:47:03.429Z,98212.84
2023-03-24T09:49:34.894Z,98209.75
2023-03-24T09:52:07.882Z,98214.38
2023-03-24T09:54:54.009Z,98205.88
2023-03-24T09:57:29.270Z,98205.47
2023-03-24T09:59:56.809Z,98196.41
2023-03-24T10:02:24.074Z,98198.72
2023-03-24T10:04:51.191Z,98195.84
2023-03-24T10:07:30.388Z,98188.19
2023-03-24T10:09:59.773Z,98192.94
2023-03-24T10:12:49.648Z,98195.72
2023-03-24T10:15:39.457Z,98180.00
2023-03-24T10:18:35.119Z,98179.13
2023-03-24T10:21:19.947Z,98173.22
2023-03-24T10:24:16.313Z,98174.22
2023-03-24T10:26:49.501Z,98173.69
2023-03-24T10:29:25.221Z,98176.63
2023-03-24T10:32:01.393Z,98175.53
2023-03-24T10:34:32.801Z,98169.53
2023-03-24T10:37:04.697Z,98159.03
2023-03-24T10:39:41.965Z,98153.56
2023-03-24T10:42:27.159Z,98152.72
2023-03-24T10:44:54.820Z,98156.13
2023-03-24T10:47:27.707Z,98149.41
2023-03-24T10:50:12.763Z,98135.66
2023-03-24T10:52:47.886Z,98133.88
2023-03-24T10:55:19.528Z,98125.09
2023-03-24T10:57:50.486Z,98126.63
2023-03-24T11:00:32.412Z,98113.69
2023-03-24T11:03:05.076Z,98118.19
2023-03-24T11:05:38.559Z,98113.81
2023-03-24T11:08:24.160Z,98106.16
2023-03-24T11:10:51.623Z,98113.38
2023-03-24T11:13:36.717Z,98103.47
2023-03-24T11:16:16.516Z,98099.16
2023-03-24T11:19:04.359Z,98090.69
2023-03-24T11:21:35.716Z,98080.34
2023-03-24T11:24:11.079Z,98079.44
2023-03-24T11:26:40.663Z,98069.00
2023-03-24T11:29:16.270Z,98063.97
2023-03-24T11:31:53.521Z,98055.16
2023-03-24T11:34:25.349Z,98060.53
2023-03-24T11:36:59.568Z,98060.50
2023-03-24T11:39:30.104Z,98040.44
2023-03-24T11:42:06.210Z,98040.22
2023-03-24T11:44:46.593Z,98034.97
2023-03-24T11:47:24.768Z,98026.88
2023-03-24T11:50:11.983Z,98022.38
2023-03-24T11:53:04.432Z,98015.75
2023-03-24T11:55:35.504Z,98015.56
2023-03-24T11:58:18.097Z,98007.88
2023-03-24T12:01:14.406Z,97996.56
2023-03-24T12:03:57.456Z,97989.13
2023-03-24T12:07:25.604Z,97986.72
2023-03-24T12:10:16.629Z,97982.03
2023-03-24T12:13:19.028Z,97979.72
2023-03-24T12:16:05.317Z,97968.47
2023-03-24T12:18:40.363Z,97963.59
2023-03-24T12:21:10.452Z,97959.88
2023-03-24T12:23:52.288Z,97948.25
2023-03-24T12:26:27.408Z,97943.09
2023-03-24T12:29:03.601Z,97939.94
2023-03-24T12:31:48.040Z,97926.84
2023-03-24T12:34:42.744Z,97920.44
2023-03-24T12:37:25.745Z,97918.69
2023-03-24T12:40:10.560Z,97905.78
2023-03-24T12:42:44.214Z,97908.63
2023-03-24T12:45:59.938Z,97897.38
2023-03-24T12:48:41.686Z,97897.03
2023-03-24T12:51:27.530Z,97893.88
2023-03-24T12:54:09.895Z,97885.53
2023-03-24T12:56:49.985Z,97876.31
2023-03-24T12:59:36.105Z,97872.22
2023-03-24T13:02:17.680Z,97879.97
2023-03-24T13:04:48.818Z,97860.38
2023-03-24T13:07:20.336Z,97858.88
2023-03-24T13:09:53.435Z,97853.00
2023-03-24T13:12:24.590Z,97861.09
2023-03-24T13:15:09.777Z,97849.75
2023-03-24T13:18:01.527Z,97837.31
2023-03-24T13:20:36.365Z,97844.13
2023-03-24T13:23:22.790Z,97836.06
2023-03-24T13:26:42.632Z,97833.91
2023-03-24T13:29:18.869Z,97826.16
2023-03-24T13:32:13.160Z,97823.06
2023-03-24T13:35:04.335Z,97816.66
2023-03-24T13:37:54.042Z,97814.13
2023-03-24T13:40:25.088Z,97816.94
2023-03-24T13:42:58.081Z,97811.66
2023-03-24T13:45:33.078Z,97807.75
2023-03-24T13:48:24.264Z,97800.19
2023-03-24T13:50:58.772Z,97800.19
2023-03-24T13:53:39.176Z,97794.66
2023-03-24T13:56:09.203Z,97787.13
2023-03-24T13:58:47.251Z,97783.38
2023-03-24T14:01:31.894Z,97781.00
2023-03-24T14:04:27.510Z,97774.19
2023-03-24T14:06:59.400Z,97772.59
2023-03-24T14:09:31.145Z,97771.13
2023-03-24T14:12:04.585Z,97773.97
2023-03-24T14:14:35.608Z,97764.25
2023-03-24T14:17:08.662Z,97773.72
2023-03-24T14:19:42.204Z,97769.22
2023-03-24T14:22:13.708Z,97767.06
2023-03-24T14:24:45.612Z,97762.47
2023-03-24T14:27:34.724Z,97759.50
2023-03-24T14:30:26.469Z,97750.78
2023-03-24T14:32:57.022Z,97753.59
2023-03-24T14:35:34.905Z,97744.69
2023-03-24T14:38:05.464Z,97740.03
2023-03-24T14:40:42.042Z,97745.38
2023-03-24T14:43:47.379Z,97742.28
2023-03-24T14:46:21.002Z,97738.22
2023-03-24T14:49:13.987Z,97725.84
2023-03-24T14:51:47.890Z,97726.19
2023-03-24T14:54:14.991Z,97723.41
2023-03-24T14:56:45.870Z,97728.00
2023-03-24T14:59:23.985Z,97717.69
2023-03-24T15:01:56.952Z,97714.28
2023-03-24T15:04:24.369Z,97712.44
2023-03-24T15:06:52.298Z,97706.00
2023-03-24T15:09:19.511Z,97701.81
2023-03-24T15:11:48.706Z,97699.88
2023-03-24T15:14:25.453Z,97700.84
2023-03-24T15:17:04.163Z,97695.38
2023-03-24T15:19:31.833Z,97690.47
2023-03-24T15:22:06.272Z,97696.22
2023-03-24T15:24:37.943Z,97703.78
2023-03-24T15:27:08.116Z,97692.47
2023-03-24T15:29:37.328Z,97698.03
2023-03-24T15:32:05.832Z,97699.50
2023-03-24T15:34:40.798Z,97699.56
2023-03-24T15:37:24.953Z,97699.22
2023-03-24T15:40:05.272Z,97692.94
2023-03-24T15:42:42.258Z,97702.13
2023-03-24T15:45:27.806Z,97694.97
2023-03-24T15:47:56.040Z,97697.56
2023-03-24T15:51:00.337Z,97690.84
2023-03-24T15:53:39.829Z,97692.31
2023-03-24T15:56:16.109Z,97691.84
2023-03-24T15:59:04.191Z,97680.81
2023-03-24T16:01:31.871Z,97691.28
2023-03-24T16:04:01.601Z,97693.13
2023-03-24T16:06:34.076Z,97695.75
2023-03-24T16:09:05.295Z,97688.66
2023-03-24T16:11:32.615Z,97693.94
2023-03-24T16:14:07.734Z,97684.69
2023-03-24T16:16:42.196Z,97683.13
2023-03-24T16:19:09.481Z,97687.00
2023-03-24T16:21:36.645Z,97688.72
2023-03-24T16:24:04.065Z,97685.22
2023-03-24T16:26:33.090Z,97692.28
2023-03-24T16:29:13.152Z,97685.28
2023-03-24T16:31:40.528Z,97692.13
2023-03-24T16:34:07.633Z,97685.47
2023-03-24T16:36:34.907Z,97685.19
2023-03-24T16:39:03.360Z,97686.53
2023-03-24T16:41:30.788Z,97685.78
2023-03-24T16:43:57.933Z,97686.84
2023-03-24T16:46:27.918Z,97688.94
2023-03-24T16:48:56.091Z,97677.91
2023-03-24T16:51:23.394Z,97687.69
2023-03-24T16:53:50.808Z,97681.25
2023-03-24T16:56:20.095Z,97688.09
2023-03-24T16:58:48.429Z,97682.69
2023-03-24T17:01:27.989Z,97685.63
2023-03-24T17:03:59.913Z,97683.22
2023-03-24T17:06:28.813Z,97681.97
2023-03-24T17:08:56.051Z,97680.66
2023-03-24T17:11:32.572Z,97688.66
2023-03-24T17:14:02.314Z,97688.47
2023-03-24T17:16:29.969Z,97688.16
2023-03-24T17:19:03.694Z,97686.31
2023-03-24T17:21:31.548Z,97681.06
2023-03-24T17:23:58.946Z,97683.19
2023-03-24T17:26:26.701Z,97690.31
2023-03-24T17:28:53.902Z,97693.19
2023-03-24T17:31:21.120Z,97694.63
2023-03-24T17:33:48.426Z,97697.69
2023-03-24T17:36:17.033Z,97687.34
2023-03-24T17:38:44.382Z,97694.63
2023-03-24T17:41:11.490Z,97697.09
2023-03-24T17:43:38.786Z,97698.28
2023-03-24T17:46:06.064Z,97702.41
2023-03-24T17:48:33.822Z,97697.53
2023-03-24T17:51:01.148Z,97700.34
2023-03-24T17:53:28.535Z,97708.50
2023-03-24T17:55:59.147Z,97707.16
2023-03-24T17:58:31.146Z,97711.72
2023-03-24T18:01:00.198Z,97706.75
2023-03-24T18:03:38.284Z,97722.44
2023-03-24T18:06:16.774Z,97721.03
2023-03-24T18:08:44.604Z,97720.06
2023-03-24T18:11:18.400Z,97724.53
2023-03-24T18:13:45.638Z,97724.56
2023-03-24T18:16:21.268Z,97727.78
2023-03-24T18:18:51.409Z,97734.56
2023-03-24T18:21:19.839Z,97733.72
2023-03-24T18:23:47.471Z,97728.00
2023-03-24T18:26:16.635Z,97734.50
2023-03-24T18:28:45.955Z,97746.25
2023-03-24T18:31:19.056Z,97746.03
2023-03-24T18:33:51.307Z,97745.38
2023-03-24T18:36:26.921Z,97746.28
2023-03-24T18:39:08.243Z,97753.72
2023-03-24T18:41:39.761Z,97746.19
2023-03-24T18:44:11.571Z,97759.47
2023-03-24T18:46:39.131Z,97760.41
2023-03-24T18:49:07.394Z,97760.13
2023-03-24T18:51:36.488Z,97755.38
2023-03-24T18:54:03.802Z,97762.94
2023-03-24T18:56:31.478Z,97765.66
2023-03-24T18:58:58.850Z,97758.97
2023-03-24T19:01:26.362Z,97771.06
2023-03-24T19:03:54.466Z,97771.19
2023-03-24T19:06:22.737Z,97775.25
2023-03-24T19:08:52.395Z,97770.81
2023-03-24T19:11:20.031Z,97768.47
2023-03-24T19:13:50.220Z,97780.56
2023-03-24T19:16:18.792Z,97788.41
2023-03-24T19:18:46.236Z,97783.38
2023-03-24T19:21:13.499Z,97791.53
2023-03-24T19:23:40.711Z,97781.03
2023-03-24T19:26:08.014Z,97785.34
2023-03-24T19:28:37.487Z,97776.78
2023-03-24T19:31:10.040Z,97780.50
2023-03-24T19:33:37.725Z,97790.66
2023-03-24T19:36:09.472Z,97787.00
2023-03-24T19:38:38.641Z,97798.69
2023-03-24T19:41:09.464Z,97800.22
2023-03-24T19:43:37.140Z,97794.44
2023-03-24T19:46:05.474Z,97810.09
2023-03-24T19:48:33.584Z,97805.19
2023-03-24T19:51:00.803Z,97810.09
2023-03-24T19:53:28.696Z,97802.13
2023-03-24T19:55:59.897Z,97802.97
2023-03-24T19:58:27.266Z,97798.06
2023-03-24T20:00:54.668Z,97803.47
2023-03-24T20:03:22.058Z,97805.00
2023-03-24T20:05:50.424Z,97809.59
2023-03-24T20:08:19.378Z,97811.81
2023-03-24T20:10:47.105Z,97808.06
2023-03-24T20:13:14.456Z,97807.72
2023-03-24T20:15:42.040Z,97804.66
2023-03-24T20:18:10.839Z,97803.63
2023-03-24T20:20:38.141Z,97811.06
2023-03-24T20:23:05.663Z,97809.56
2023-03-24T20:25:32.957Z,97814.47
2023-03-24T20:28:00.349Z,97818.03
2023-03-24T20:30:30.530Z,97805.13
2023-03-24T20:33:01.220Z,97815.78
2023-03-24T20:35:29.132Z,97811.19
2023-03-24T20:37:56.561Z,97815.22
2023-03-24T20:40:25.237Z,97816.03
2023-03-24T20:42:53.845Z,97814.84
2023-03-24T20:45:21.641Z,97815.31
2023-03-24T20:47:48.762Z,97821.25
2023-03-24T20:50:16.654Z,97820.22
2023-03-24T20:52:43.767Z,97818.34
2023-03-24T20:55:11.974Z,97819.34
2023-03-24T20:57:39.600Z,97824.31
2023-03-24T21:00:14.014Z,97820.94
2023-03-24T21:02:43.741Z,97826.84
2023-03-24T21:05:11.907Z,97833.09
2023-03-24T21:07:42.780Z,97839.66
2023-03-24T21:10:11.003Z,97834.69
2023-03-24T21:12:52.456Z,97834.69
2023-03-24T21:15:23.181Z,97841.44
2023-03-24T21:17:50.620Z,97838.66
2023-03-24T21:20:19.171Z,97839.91
2023-03-24T21:22:55.968Z,97854.72
2023-03-24T21:25:28.474Z,97852.25
2023-03-24T21:27:56.312Z,97846.81
2023-03-24T21:30:25.203Z,97846.56
2023-03-24T21:32:53.997Z,97851.13
2023-03-24T21:35:22.111Z,97857.09
2023-03-24T21:37:49.791Z,97848.84
2023-03-24T21:40:20.342Z,97849.00
2023-03-24T21:42:49.906Z,97856.34
2023-03-24T21:45:19.595Z,97860.47
2023-03-24T21:47:51.101Z,97866.00
2023-03-24T21:50:23.773Z,97867.25
2023-03-24T21:52:53.356Z,97868.25
2023-03-24T21:55:21.798Z,97877.13
2023-03-24T21:57:50.807Z,97871.25
2023-03-24T22:00:21.158Z,97878.16
2023-03-24T22:02:51.102Z,97880.53
2023-03-24T22:05:23.518Z,97875.03
2023-03-24T22:07:51.297Z,97870.63
2023-03-24T22:10:24.010Z,97877.16
2023-03-24T22:12:52.668Z,97869.56
2023-03-24T22:15:21.340Z,97880.53
2023-03-24T22:17:48.839Z,97884.91
2023-03-24T22:20:17.182Z,97880.78
2023-03-24T22:22:44.712Z,97886.75
2023-03-24T22:25:14.218Z,97881.03
2023-03-24T22:27:41.759Z,97870.72
2023-03-24T22:30:11.862Z,97869.56
2023-03-24T22:32:39.513Z,97867.75
2023-03-24T22:35:08.112Z,97865.19
2023-03-24T22:37:35.326Z,97867.63
2023-03-24T22:40:03.718Z,97865.47
2023-03-24T22:42:30.943Z,97865.91
2023-03-24T22:44:58.304Z,97872.34
2023-03-24T22:47:27.841Z,97887.16
2023-03-24T22:49:54.954Z,97880.47
2023-03-24T22:52:22.099Z,97883.34
2023-03-24T22:54:49.173Z,97878.13
2023-03-24T22:57:17.965Z,97874.41
2023-03-24T22:59:45.210Z,97879.09
2023-03-24T23:02:12.495Z,97866.28
2023-03-24T23:04:40.866Z,97877.06
2023-03-24T23:07:10.936Z,97868.09
2023-03-24T23:09:41.791Z,97871.13
2023-03-24T23:12:10.000Z,97886.03
2023-03-24T23:14:39.902Z,97882.94
2023-03-24T23:17:09.714Z,97887.75
2023-03-24T23:19:39.446Z,97888.44
2023-03-24T23:22:08.724Z,97891.16
2023-03-24T23:24:39.776Z,97890.28
2023-03-24T23:27:09.170Z,97895.84
2023-03-24T23:29:40.719Z,97893.72
2023-03-24T23:32:13.408Z,97898.91
2023-03-24T23:34:45.632Z,97893.22
2023-03-24T23:37:14.926Z,97893.09
2023-03-24T23:39:45.118Z,97893.94
2023-03-24T23:42:12.739Z,97893.78
2023-03-24T23:44:41.128Z,97888.84
2023-03-24T23:47:10.184Z,97887.84
2023-03-24T23:49:38.470Z,97886.41
2023-03-24T23:52:09.375Z,97887.97
2023-03-24T23:54:39.164Z,97893.94
2023-03-24T23:57:06.328Z,97890.84
2023-03-24T23:59:34.244Z,97886.84
